PUW weather

Pullman Moscow Regional Airport
Pullman/Moscow, Washington, United States

Public forecast

Using degrees Fahrenheit for public forecast. Weather courtesy of forecast.io.

Current aviation weather report (METAR) for Pullman Moscow Regional Airport

Retrieved 2020/01/18 15:53 UTC (56 minutes ago):

KPUW 181553Z AUTO 10013KT 10SM OVC085 M02/M05 A3025 RMK AO2 SLP274 T10171050

Aviation forecast (TAF) for Pullman Moscow Regional Airport

Retrieved 2020/01/18 12:36 UTC (4 hours ago):

TAF COR KPUW 181135Z 1812/1912 09007KT P6SM BKN030 OVC060 FM181800 13010KT 1SM -SN BKN015 OVC025 TEMPO 1819/1823 3/4SM -SN BKN009 OVC015 FM182300 13008KT 2SM -SN BKN010 OVC025 FM190100 14007KT 3SM BR OVC015